Kibble, Illinois
Current Conditions -  °F | °C
As of 3:35 PM on Saturday 20 Dec 2014 (Local Time) from KRSV Reporting Station
Overcast Overcast  
Wind Chill: 36°   Ceiling: 6500
Heat Index: 36°   Visibility: 10mi
Dew Point: 27°   Wind: 0mph
Humidity: 71%   Direction: NA
Pressure: 30.3"   Gusts: NA
Location:  39.0119°N, 87.8886°W
Report Text: KRSV 202135Z AUTO 00000KT 10SM OVC065 02/M03 A3030 RMK AO2 T00201027
Loading
Personal Weather Stations






























Interactive Weather Map New forecast layout! Learn more

10-Day Weather Forecast

Advertisements
Track Severe Weather on mobile